Time;durP1;ratioP1;P1;durP2;ratioP2;P2;SDS_P1;SDS_P2;PMS_P1;PMS_P2;Temp;Humidity;BMP_temperature;BMP_pressure;BME280_temperature;BME280_humidity;BME280_pressure;Samples;Min_cycle;Max_cycle;Signal;HPM_P1;HPM_P2
2023/04/07 00:00:05;;;;;;;4.30;2.60;;;10.20;99.90;;;;;;5016030;28;20049;-76
2023/04/07 00:02:31;;;;;;;3.88;2.13;;;10.10;99.90;;;;;;5015254;28;20519;-76
2023/04/07 00:04:58;;;;;;;6.07;3.63;;;10.10;99.90;;;;;;5022689;28;20046;-75
2023/04/07 00:07:25;;;;;;;6.25;4.35;;;10.10;99.90;;;;;;5016748;28;20046;-76
2023/04/07 00:09:52;;;;;;;7.85;4.97;;;10.10;99.90;;;;;;5023672;28;20425;-76
2023/04/07 00:12:19;;;;;;;6.82;4.45;;;10.00;99.90;;;;;;5012767;28;20049;-75
2023/04/07 00:14:46;;;;;;;4.03;2.55;;;10.00;99.90;;;;;;5012899;28;20390;-76
2023/04/07 00:17:12;;;;;;;5.22;1.95;;;10.10;99.90;;;;;;5012378;28;20421;-76
2023/04/07 00:19:39;;;;;;;3.45;1.65;;;10.10;99.90;;;;;;5011824;28;20080;-75
2023/04/07 00:22:06;;;;;;;4.70;2.30;;;10.00;99.90;;;;;;5015829;28;20508;-76
2023/04/07 00:24:32;;;;;;;4.40;2.80;;;10.00;99.90;;;;;;5012754;28;20049;-76
2023/04/07 00:27:00;;;;;;;3.38;2.30;;;10.00;99.90;;;;;;5018198;28;20049;-76
2023/04/07 00:29:27;;;;;;;3.63;2.00;;;10.00;99.90;;;;;;5017096;28;20045;-76
2023/04/07 00:31:54;;;;;;;3.78;1.90;;;10.00;99.90;;;;;;5017643;28;20045;-76
2023/04/07 00:34:21;;;;;;;3.25;1.75;;;10.00;99.90;;;;;;5019607;28;20049;-76
2023/04/07 00:36:51;;;;;;;3.05;1.50;;;10.00;99.90;;;;;;5011198;28;20053;-76
2023/04/07 00:39:18;;;;;;;4.93;1.80;;;10.00;99.90;;;;;;5012384;28;20058;-76
2023/04/07 00:41:46;;;;;;;5.65;1.83;;;10.00;99.90;;;;;;5015653;28;20049;-76
2023/04/07 00:44:13;;;;;;;3.45;1.70;;;10.00;99.90;;;;;;5013893;28;20057;-76
2023/04/07 00:46:40;;;;;;;6.78;2.00;;;10.00;99.90;;;;;;5012961;28;20573;-76
2023/04/07 00:49:07;;;;;;;3.20;1.73;;;9.90;99.90;;;;;;5012408;28;20529;-76
2023/04/07 00:51:37;;;;;;;2.77;1.73;;;9.90;99.90;;;;;;5019243;28;20052;-76
2023/04/07 00:54:04;;;;;;;2.67;1.60;;;9.90;99.90;;;;;;5008864;28;20061;-76
2023/04/07 00:56:31;;;;;;;3.58;1.67;;;9.90;99.90;;;;;;5019531;28;20045;-76
2023/04/07 00:58:58;;;;;;;2.08;1.63;;;9.90;99.90;;;;;;5024732;28;20050;-74
2023/04/07 01:01:29;;;;;;;2.03;1.33;;;10.00;99.90;;;;;;5011833;28;20053;-76
2023/04/07 01:04:03;;;;;;;4.85;1.92;;;10.00;99.90;;;;;;5008895;28;20052;-76
2023/04/07 01:06:35;;;;;;;2.92;1.75;;;10.00;99.90;;;;;;5011850;28;20045;-76
2023/04/07 01:09:24;;;;;;;3.25;1.80;;;10.00;99.90;;;;;;5013169;28;20121;-76
2023/04/07 01:11:56;;;;;;;3.67;1.60;;;9.90;99.90;;;;;;5006658;28;20052;-76
2023/04/07 01:14:24;;;;;;;5.18;1.92;;;10.00;99.90;;;;;;5018056;28;20057;-76
2023/04/07 01:16:54;;;;;;;3.58;1.70;;;10.00;99.90;;;;;;5012558;28;20556;-76
2023/04/07 01:19:35;;;;;;;2.58;1.63;;;10.00;99.90;;;;;;5018688;28;20050;-76
2023/04/07 01:22:08;;;;;;;2.22;1.45;;;10.00;99.90;;;;;;5014910;28;20054;-75
2023/04/07 01:25:17;;;;;;;2.55;1.50;;;10.00;99.90;;;;;;5009177;28;20052;-75
2023/04/07 01:28:21;;;;;;;3.97;1.85;;;10.00;99.90;;;;;;5025849;28;20042;-76
2023/04/07 01:30:49;;;;;;;2.45;1.60;;;10.00;99.90;;;;;;5001039;28;20387;-76
2023/04/07 01:33:17;;;;;;;3.75;1.70;;;9.90;99.90;;;;;;5011439;28;20049;-76
2023/04/07 01:35:45;;;;;;;3.67;2.03;;;9.90;99.90;;;;;;5011710;28;20044;-74
2023/04/07 01:38:13;;;;;;;1.67;1.40;;;9.90;99.90;;;;;;5016118;28;20049;-76
2023/04/07 01:40:40;;;;;;;3.30;1.67;;;9.90;99.90;;;;;;5013597;28;20048;-76
2023/04/07 01:43:08;;;;;;;4.45;2.10;;;9.90;99.90;;;;;;5020287;28;20052;-76
2023/04/07 01:45:35;;;;;;;5.32;2.33;;;9.90;99.90;;;;;;5016355;28;20096;-76
2023/04/07 01:48:06;;;;;;;2.25;1.60;;;9.80;99.90;;;;;;5025551;28;20123;-76
2023/04/07 01:50:34;;;;;;;5.72;1.63;;;9.80;99.90;;;;;;5012703;28;20096;-76
2023/04/07 01:53:02;;;;;;;4.20;1.77;;;9.80;99.90;;;;;;5015008;28;20095;-76
2023/04/07 01:55:29;;;;;;;1.92;1.30;;;9.70;99.90;;;;;;5014788;28;20617;-76
2023/04/07 01:57:55;;;;;;;4.47;1.77;;;9.70;99.90;;;;;;5013754;28;20056;-76
2023/04/07 02:00:22;;;;;;;4.95;1.63;;;9.70;99.90;;;;;;5019535;28;20060;-76
2023/04/07 02:02:54;;;;;;;3.92;2.10;;;9.60;99.90;;;;;;5011852;28;20529;-76
2023/04/07 02:05:22;;;;;;;2.67;2.05;;;9.60;99.90;;;;;;5020330;28;20537;-76
2023/04/07 02:08:03;;;;;;;4.53;2.25;;;9.60;99.90;;;;;;5020949;28;20042;-76
2023/04/07 02:10:34;;;;;;;1.85;1.48;;;9.50;99.90;;;;;;5018220;28;20041;-76
2023/04/07 02:13:04;;;;;;;1.50;1.40;;;9.50;99.90;;;;;;5017641;28;20096;-76
2023/04/07 02:15:31;;;;;;;2.42;1.75;;;9.50;99.90;;;;;;5014414;28;20045;-76
2023/04/07 02:17:59;;;;;;;3.30;1.95;;;9.50;99.90;;;;;;5014301;28;20042;-76
2023/04/07 02:20:27;;;;;;;3.50;1.83;;;9.40;99.90;;;;;;5013217;28;20053;-76
2023/04/07 02:22:54;;;;;;;4.43;1.50;;;9.40;99.90;;;;;;5017975;28;20071;-76
2023/04/07 02:25:26;;;;;;;3.60;2.00;;;9.40;99.90;;;;;;5020057;28;20081;-76
2023/04/07 02:27:55;;;;;;;5.35;2.00;;;9.40;99.90;;;;;;5019936;28;20050;-77
2023/04/07 02:30:22;;;;;;;1.85;1.42;;;9.40;99.90;;;;;;5020980;28;20046;-76
2023/04/07 02:32:49;;;;;;;3.35;1.63;;;9.40;99.90;;;;;;5015116;28;20041;-76
2023/04/07 02:35:16;;;;;;;3.22;1.98;;;9.40;99.90;;;;;;5025963;28;20563;-75
2023/04/07 02:37:43;;;;;;;3.33;2.15;;;9.30;99.90;;;;;;5017339;28;20046;-76
2023/04/07 02:40:10;;;;;;;3.40;1.90;;;9.30;99.90;;;;;;5013934;28;20506;-76
2023/04/07 02:42:37;;;;;;;3.45;2.10;;;9.30;99.90;;;;;;5014144;28;20521;-76
2023/04/07 02:45:05;;;;;;;2.85;1.55;;;9.30;99.90;;;;;;5014094;28;20050;-76
2023/04/07 02:47:33;;;;;;;3.08;1.70;;;9.30;99.90;;;;;;5015030;28;20049;-76
2023/04/07 02:50:00;;;;;;;3.67;2.13;;;9.20;99.90;;;;;;5013709;28;20046;-76
2023/04/07 02:52:26;;;;;;;2.65;1.80;;;9.20;99.90;;;;;;5021691;28;20056;-76
2023/04/07 02:54:53;;;;;;;2.60;1.60;;;9.20;99.90;;;;;;5014518;28;20049;-76
2023/04/07 02:57:20;;;;;;;2.65;1.85;;;9.20;99.90;;;;;;5019127;28;20521;-76
2023/04/07 02:59:47;;;;;;;3.03;2.28;;;9.10;99.90;;;;;;5022893;28;20046;-76
2023/04/07 03:02:13;;;;;;;3.10;2.20;;;9.10;99.90;;;;;;5013968;28;20540;-75
2023/04/07 03:04:40;;;;;;;2.45;1.80;;;9.00;99.90;;;;;;5013622;28;20050;-76
2023/04/07 03:07:07;;;;;;;5.43;1.92;;;9.00;99.90;;;;;;5013705;28;20050;-77
2023/04/07 03:09:34;;;;;;;2.47;1.83;;;8.90;99.90;;;;;;5014494;28;20133;-76
2023/04/07 03:12:01;;;;;;;4.15;2.13;;;8.90;99.90;;;;;;5013472;28;20038;-77
2023/04/07 03:14:27;;;;;;;3.65;1.90;;;8.90;99.90;;;;;;5014128;28;20413;-76
2023/04/07 03:16:55;;;;;;;2.70;1.77;;;8.90;99.90;;;;;;5016156;28;20502;-75
2023/04/07 03:19:22;;;;;;;5.85;1.95;;;8.90;99.90;;;;;;5014103;28;20061;-76
2023/04/07 03:21:49;;;;;;;2.63;1.85;;;8.90;99.90;;;;;;5024232;28;20501;-76
2023/04/07 03:24:16;;;;;;;4.85;1.80;;;8.90;99.90;;;;;;5017778;28;20132;-76
2023/04/07 03:26:42;;;;;;;3.53;2.65;;;8.90;99.90;;;;;;5023672;28;20050;-76
2023/04/07 03:29:09;;;;;;;3.33;1.83;;;8.90;99.90;;;;;;5028259;28;20050;-76
2023/04/07 03:31:36;;;;;;;2.60;2.13;;;8.90;99.90;;;;;;5011897;28;20041;-76
2023/04/07 03:34:04;;;;;;;3.83;1.80;;;8.90;99.90;;;;;;5013447;28;20125;-76
2023/04/07 03:36:30;;;;;;;2.67;2.08;;;8.90;99.90;;;;;;5012990;28;20490;-76
2023/04/07 03:38:57;;;;;;;3.88;2.00;;;8.90;99.90;;;;;;5016402;28;20045;-76
2023/04/07 03:41:24;;;;;;;3.20;2.13;;;8.90;99.90;;;;;;5011356;28;20050;-77
2023/04/07 03:43:51;;;;;;;3.22;1.80;;;8.90;99.90;;;;;;5020282;28;20129;-76
2023/04/07 03:46:21;;;;;;;2.13;1.92;;;8.90;99.90;;;;;;5018517;28;20068;-76
2023/04/07 03:48:48;;;;;;;3.55;2.08;;;8.90;99.90;;;;;;5014751;28;20037;-76
2023/04/07 03:51:15;;;;;;;2.78;1.67;;;8.90;99.90;;;;;;5014676;28;20454;-76
2023/04/07 03:53:41;;;;;;;2.33;1.90;;;8.90;99.90;;;;;;5012824;28;20096;-76
2023/04/07 03:56:08;;;;;;;3.83;2.00;;;8.90;99.90;;;;;;5010396;28;20427;-75
2023/04/07 03:58:35;;;;;;;3.97;2.20;;;8.90;99.90;;;;;;5012255;28;20045;-75
2023/04/07 04:01:02;;;;;;;4.50;2.53;;;8.90;99.90;;;;;;5013963;28;20045;-76
2023/04/07 04:03:29;;;;;;;2.42;1.95;;;8.90;99.90;;;;;;5013687;28;20053;-76
2023/04/07 04:05:56;;;;;;;4.10;1.85;;;8.90;99.90;;;;;;5012088;28;20516;-76
2023/04/07 04:08:22;;;;;;;3.03;2.25;;;8.90;99.90;;;;;;5019142;28;20621;-76
2023/04/07 04:10:50;;;;;;;4.15;2.17;;;8.90;99.90;;;;;;5013991;28;20038;-76
2023/04/07 04:13:16;;;;;;;2.88;1.90;;;8.90;99.90;;;;;;5024334;28;20048;-76
2023/04/07 04:15:43;;;;;;;4.50;1.90;;;8.90;99.90;;;;;;5016165;28;20046;-75
2023/04/07 04:18:10;;;;;;;2.13;1.90;;;8.90;99.90;;;;;;5011369;28;20046;-75
2023/04/07 04:20:37;;;;;;;2.28;2.00;;;8.90;99.90;;;;;;5012053;28;20052;-76
2023/04/07 04:23:03;;;;;;;3.72;1.80;;;8.90;99.90;;;;;;5012217;28;20147;-76
2023/04/07 04:25:30;;;;;;;2.92;1.67;;;8.90;99.90;;;;;;5014570;28;20052;-76
2023/04/07 04:27:57;;;;;;;2.88;1.70;;;8.90;99.90;;;;;;5011982;28;20050;-74
2023/04/07 04:30:23;;;;;;;4.10;1.77;;;8.90;99.90;;;;;;5015331;28;20041;-75
2023/04/07 04:32:50;;;;;;;3.47;1.95;;;8.90;99.90;;;;;;5016173;28;20038;-76
2023/04/07 04:35:17;;;;;;;2.10;1.70;;;8.90;99.90;;;;;;5009369;28;20049;-76
2023/04/07 04:37:44;;;;;;;2.72;1.80;;;8.90;99.90;;;;;;5030887;28;20053;-76
2023/04/07 04:40:11;;;;;;;3.15;1.70;;;8.90;99.90;;;;;;5023432;28;20054;-77
2023/04/07 04:42:37;;;;;;;4.60;1.55;;;8.90;99.90;;;;;;5020435;28;20132;-76
2023/04/07 04:45:05;;;;;;;6.07;1.88;;;8.90;99.90;;;;;;5009498;28;20041;-76
2023/04/07 04:47:32;;;;;;;3.50;1.90;;;8.90;99.90;;;;;;5012208;28;20129;-76
2023/04/07 04:49:58;;;;;;;2.13;1.60;;;8.80;99.90;;;;;;5011251;28;20517;-76
2023/04/07 04:52:26;;;;;;;2.50;1.60;;;8.80;99.90;;;;;;5016442;28;20505;-75
2023/04/07 04:54:52;;;;;;;3.42;1.77;;;8.80;99.90;;;;;;5017381;28;20048;-75
2023/04/07 04:57:19;;;;;;;3.80;2.13;;;8.80;99.90;;;;;;5012476;28;20395;-76
2023/04/07 04:59:46;;;;;;;3.88;2.42;;;8.90;99.90;;;;;;5018341;28;20128;-76
2023/04/07 05:02:13;;;;;;;2.38;1.73;;;8.80;99.90;;;;;;5017068;28;20065;-76
2023/04/07 05:04:40;;;;;;;2.30;1.60;;;8.80;99.90;;;;;;5016271;28;20100;-76
2023/04/07 05:07:07;;;;;;;3.03;1.85;;;8.90;99.90;;;;;;5011501;28;20049;-76
2023/04/07 05:09:33;;;;;;;6.00;1.77;;;8.90;99.90;;;;;;5011256;28;20502;-76
2023/04/07 05:12:01;;;;;;;2.95;2.00;;;8.90;99.90;;;;;;5011772;28;20041;-76
2023/04/07 05:14:28;;;;;;;5.30;2.60;;;8.90;99.90;;;;;;5011589;28;20046;-75
2023/04/07 05:16:54;;;;;;;3.60;2.08;;;8.90;99.90;;;;;;5015499;28;20046;-76
2023/04/07 05:19:21;;;;;;;6.20;2.50;;;8.90;99.90;;;;;;5012141;28;20056;-75
2023/04/07 05:21:48;;;;;;;4.05;2.65;;;8.90;99.90;;;;;;5028737;28;20421;-76
2023/04/07 05:24:14;;;;;;;4.50;2.88;;;8.90;99.90;;;;;;5019290;28;20069;-76
2023/04/07 05:26:41;;;;;;;4.78;2.67;;;8.70;99.90;;;;;;5012977;28;20049;-77
2023/04/07 05:29:07;;;;;;;3.88;3.03;;;8.70;99.90;;;;;;5020108;28;20046;-76
2023/04/07 05:31:36;;;;;;;4.82;2.85;;;8.70;99.90;;;;;;5009937;28;20056;-76
2023/04/07 05:34:03;;;;;;;6.00;3.00;;;8.70;99.90;;;;;;5011522;28;20390;-76
2023/04/07 05:36:30;;;;;;;4.82;2.67;;;8.70;99.90;;;;;;5022180;28;20092;-76
2023/04/07 05:38:57;;;;;;;4.10;2.60;;;8.70;99.90;;;;;;5012283;28;20083;-76
2023/04/07 05:41:23;;;;;;;2.50;2.15;;;8.70;99.90;;;;;;5016957;28;20096;-76
2023/04/07 05:43:50;;;;;;;4.18;2.90;;;8.80;99.90;;;;;;5011286;28;20045;-76
2023/04/07 05:46:17;;;;;;;4.57;2.20;;;8.80;99.90;;;;;;5017066;28;20088;-76
2023/04/07 05:48:44;;;;;;;5.80;2.92;;;8.80;99.90;;;;;;5013992;28;20050;-76
2023/04/07 05:51:11;;;;;;;4.22;2.92;;;8.80;99.90;;;;;;5016853;28;20048;-76
2023/04/07 05:53:38;;;;;;;4.65;2.88;;;8.80;99.90;;;;;;5015786;28;20152;-76
2023/04/07 05:56:04;;;;;;;3.60;2.45;;;8.90;99.90;;;;;;5011915;28;20045;-76
2023/04/07 05:58:31;;;;;;;5.18;2.80;;;8.90;99.90;;;;;;5011126;28;20140;-77
2023/04/07 06:00:58;;;;;;;4.05;2.38;;;8.90;99.90;;;;;;5013979;28;20493;-76
2023/04/07 06:03:25;;;;;;;4.93;2.35;;;8.90;99.90;;;;;;5012473;28;20662;-76
2023/04/07 06:05:52;;;;;;;5.18;2.70;;;8.90;99.90;;;;;;5011388;28;20041;-76
2023/04/07 06:08:18;;;;;;;4.68;2.40;;;8.90;99.90;;;;;;5014711;28;20069;-76
2023/04/07 06:10:45;;;;;;;4.95;2.90;;;9.00;99.90;;;;;;5016226;28;20534;-76
2023/04/07 06:13:12;;;;;;;5.22;2.70;;;9.00;99.90;;;;;;5011618;28;20046;-76
2023/04/07 06:15:38;;;;;;;3.78;2.65;;;9.00;99.90;;;;;;5022101;28;20045;-76
2023/04/07 06:18:05;;;;;;;4.22;2.45;;;9.10;99.90;;;;;;5015309;28;20052;-76
2023/04/07 06:20:32;;;;;;;3.53;2.40;;;9.10;99.90;;;;;;5011739;28;20429;-76
2023/04/07 06:22:59;;;;;;;5.43;2.50;;;9.10;99.90;;;;;;5011284;28;20540;-76
2023/04/07 06:25:25;;;;;;;4.32;2.35;;;9.20;99.90;;;;;;5011376;28;20569;-76
2023/04/07 06:27:53;;;;;;;4.28;2.38;;;9.20;99.90;;;;;;5011836;28;20133;-76
2023/04/07 06:30:20;;;;;;;3.00;2.45;;;9.20;99.90;;;;;;5012762;28;20493;-76
2023/04/07 06:32:46;;;;;;;3.30;2.28;;;9.30;99.90;;;;;;5022179;28;20290;-77
2023/04/07 06:35:13;;;;;;;3.25;2.45;;;9.30;99.90;;;;;;5030161;28;20053;-76
2023/04/07 06:37:40;;;;;;;4.05;2.40;;;9.30;99.90;;;;;;5016320;28;20054;-76
2023/04/07 06:40:07;;;;;;;4.22;2.88;;;9.30;99.90;;;;;;5016271;28;20073;-76
2023/04/07 06:42:34;;;;;;;4.25;2.50;;;9.30;99.90;;;;;;5014484;28;20041;-76
2023/04/07 06:45:00;;;;;;;5.03;2.90;;;9.30;99.90;;;;;;5011269;28;20045;-75
2023/04/07 06:47:28;;;;;;;4.20;2.40;;;9.30;99.90;;;;;;5014076;28;20060;-75
2023/04/07 06:49:54;;;;;;;4.18;2.58;;;9.30;99.90;;;;;;5012144;28;20042;-76
2023/04/07 06:52:21;;;;;;;4.75;2.53;;;9.30;99.90;;;;;;5014124;28;20053;-76
2023/04/07 06:54:48;;;;;;;6.28;4.72;;;9.30;99.90;;;;;;5016118;28;20053;-77
2023/04/07 06:57:14;;;;;;;2.92;2.38;;;9.40;99.90;;;;;;5015418;28;20046;-76
2023/04/07 06:59:41;;;;;;;5.30;3.30;;;9.40;99.90;;;;;;5017983;28;20065;-76
2023/04/07 07:02:08;;;;;;;4.22;2.40;;;9.40;99.90;;;;;;5014798;28;20049;-76
2023/04/07 07:04:35;;;;;;;3.65;2.40;;;9.50;99.90;;;;;;5013725;28;20120;-76
2023/04/07 07:07:02;;;;;;;3.63;2.28;;;9.60;99.90;;;;;;5015292;28;20581;-76
2023/04/07 07:09:28;;;;;;;3.70;2.63;;;9.60;99.90;;;;;;5008659;28;20557;-76
2023/04/07 07:11:56;;;;;;;2.92;2.67;;;9.70;99.90;;;;;;5012017;28;20394;-76
2023/04/07 07:14:23;;;;;;;4.85;2.72;;;9.80;99.90;;;;;;5008167;28;20403;-75
2023/04/07 07:16:49;;;;;;;3.95;2.95;;;9.80;99.90;;;;;;5012680;28;20127;-76
2023/04/07 07:19:16;;;;;;;7.32;3.08;;;9.80;99.90;;;;;;5016762;28;20050;-75
2023/04/07 07:21:43;;;;;;;6.75;3.63;;;9.80;99.90;;;;;;5013941;28;20050;-76
2023/04/07 07:24:09;;;;;;;6.45;3.40;;;9.80;99.90;;;;;;5015342;28;20125;-77
2023/04/07 07:26:36;;;;;;;6.63;3.80;;;9.80;99.90;;;;;;5010469;28;20050;-76
2023/04/07 07:29:03;;;;;;;3.58;3.00;;;9.80;99.90;;;;;;5016609;28;20056;-76
2023/04/07 07:31:30;;;;;;;5.22;3.80;;;9.80;99.90;;;;;;5016353;28;20041;-76
2023/04/07 07:33:57;;;;;;;6.53;3.83;;;9.80;99.90;;;;;;5011233;28;20528;-76
2023/04/07 07:36:23;;;;;;;5.43;3.85;;;9.90;99.90;;;;;;5025400;23;20426;-79
2023/04/07 07:38:50;;;;;;;5.75;3.83;;;9.90;99.90;;;;;;5004947;28;20061;-81
2023/04/07 07:41:17;;;;;;;6.47;4.07;;;9.80;99.90;;;;;;5004880;28;20129;-80
2023/04/07 07:43:44;;;;;;;3.80;3.30;;;9.80;99.90;;;;;;5001634;28;20045;-78
2023/04/07 07:46:11;;;;;;;6.22;4.00;;;9.80;99.90;;;;;;4999539;28;20050;-78
2023/04/07 07:48:39;;;;;;;5.10;3.70;;;9.80;99.90;;;;;;5007057;28;20052;-77
2023/04/07 07:51:05;;;;;;;4.05;3.50;;;9.80;99.90;;;;;;5002586;28;20057;-78
2023/04/07 07:53:32;;;;;;;5.47;4.00;;;9.70;99.90;;;;;;5002742;28;20074;-77
2023/04/07 07:56:00;;;;;;;6.10;3.95;;;9.60;99.90;;;;;;4997232;28;20053;-78
2023/04/07 07:58:26;;;;;;;4.90;4.15;;;9.60;99.90;;;;;;4997011;28;20050;-78
2023/04/07 08:00:53;;;;;;;5.95;4.35;;;9.60;99.90;;;;;;4995102;28;20418;-77
2023/04/07 08:03:21;;;;;;;6.47;4.88;;;9.60;99.90;;;;;;4999271;28;20050;-80
2023/04/07 08:05:49;;;;;;;6.90;3.88;;;9.50;99.90;;;;;;5001432;28;20465;-79
2023/04/07 08:08:15;;;;;;;7.07;4.53;;;9.50;99.90;;;;;;5002953;28;20689;-79
2023/04/07 08:10:42;;;;;;;5.43;3.80;;;9.50;99.90;;;;;;5002449;28;20053;-79
2023/04/07 08:13:09;;;;;;;5.72;4.00;;;9.40;99.90;;;;;;4998652;28;20129;-80
2023/04/07 08:15:36;;;;;;;6.45;4.30;;;9.30;99.90;;;;;;4998737;28;20711;-79
2023/04/07 08:18:05;;;;;;;4.13;3.33;;;9.30;99.90;;;;;;5001630;28;20042;-80
2023/04/07 08:20:32;;;;;;;4.95;2.70;;;9.20;99.90;;;;;;4995600;28;20335;-78
2023/04/07 08:23:01;;;;;;;2.10;1.80;;;9.20;99.90;;;;;;5003240;28;20050;-79
2023/04/07 08:25:28;;;;;;;3.38;2.40;;;9.10;99.90;;;;;;5000140;28;20077;-78
2023/04/07 08:27:55;;;;;;;4.63;2.47;;;9.10;99.90;;;;;;5007757;28;20049;-77
2023/04/07 08:30:22;;;;;;;2.72;2.20;;;9.10;99.90;;;;;;4997985;28;20438;-77
2023/04/07 08:32:48;;;;;;;2.45;1.83;;;9.10;99.90;;;;;;5001574;28;20041;-79
2023/04/07 08:35:15;;;;;;;1.85;1.65;;;9.10;99.90;;;;;;4998925;28;20050;-78
2023/04/07 08:37:43;;;;;;;2.20;1.98;;;9.10;99.90;;;;;;4997776;28;20048;-80
2023/04/07 08:40:10;;;;;;;1.70;1.20;;;9.10;99.90;;;;;;4999761;28;20054;-79
2023/04/07 08:42:41;;;;;;;2.13;1.45;;;9.10;99.90;;;;;;4999009;28;20065;-80
2023/04/07 08:45:08;;;;;;;1.40;1.10;;;9.10;99.90;;;;;;5001515;28;20050;-77
2023/04/07 08:47:36;;;;;;;1.45;1.33;;;9.10;99.90;;;;;;5002331;28;20049;-77
2023/04/07 08:50:08;;;;;;;1.80;0.93;;;9.10;99.90;;;;;;5005682;28;20041;-78
2023/04/07 08:52:43;;;;;;;1.58;1.02;;;9.00;99.90;;;;;;4999055;28;20052;-79
2023/04/07 08:55:10;;;;;;;1.60;1.30;;;9.00;99.90;;;;;;4996360;28;20057;-78
2023/04/07 08:57:38;;;;;;;2.63;1.55;;;9.00;99.90;;;;;;5000661;28;20048;-78
2023/04/07 09:00:05;;;;;;;1.27;0.90;;;9.00;99.90;;;;;;5001642;28;20177;-81
2023/04/07 09:02:33;;;;;;;1.20;1.00;;;9.10;99.90;;;;;;5001701;28;20432;-78
2023/04/07 09:05:03;;;;;;;2.25;1.10;;;9.10;99.90;;;;;;5007385;28;20516;-79
2023/04/07 09:07:32;;;;;;;1.30;1.07;;;9.10;99.90;;;;;;4999824;28;20053;-79
2023/04/07 09:10:00;;;;;;;1.98;1.20;;;9.10;99.90;;;;;;4999603;28;20458;-79
2023/04/07 09:12:28;;;;;;;1.75;1.20;;;9.00;99.90;;;;;;4998862;28;20039;-80
2023/04/07 09:14:55;;;;;;;1.38;0.80;;;9.10;99.90;;;;;;5002989;28;20042;-79
2023/04/07 09:17:24;;;;;;;1.40;1.30;;;9.10;99.90;;;;;;4999440;28;20474;-79
2023/04/07 09:19:52;;;;;;;2.10;1.80;;;9.10;99.90;;;;;;5000201;28;20579;-79
2023/04/07 09:22:37;;;;;;;2.28;1.80;;;9.00;99.90;;;;;;5000736;28;20046;-79
2023/04/07 09:25:13;;;;;;;1.63;1.33;;;9.00;99.90;;;;;;4999966;28;20461;-80
2023/04/07 09:27:39;;;;;;;2.10;1.40;;;8.90;99.90;;;;;;5004982;28;20111;-79
2023/04/07 09:30:14;;;;;;;1.48;1.17;;;8.90;99.90;;;;;;4998198;28;20100;-80
2023/04/07 09:32:41;;;;;;;1.98;1.35;;;8.80;99.90;;;;;;4997880;28;20109;-79
2023/04/07 09:35:08;;;;;;;1.65;1.10;;;8.80;99.90;;;;;;4997598;28;20614;-79
2023/04/07 09:37:36;;;;;;;4.30;2.35;;;8.80;99.90;;;;;;5002699;28;20517;-79
2023/04/07 09:40:03;;;;;;;3.72;2.67;;;8.70;99.90;;;;;;5000882;28;20402;-77
2023/04/07 09:42:31;;;;;;;2.92;2.10;;;8.70;99.90;;;;;;5001235;28;20055;-80
2023/04/07 09:45:01;;;;;;;2.10;1.73;;;8.70;99.90;;;;;;5001516;28;20132;-80
2023/04/07 09:47:31;;;;;;;3.33;2.03;;;8.70;99.90;;;;;;5002009;28;20140;-79
2023/04/07 09:49:58;;;;;;;1.67;1.27;;;8.70;99.90;;;;;;5000569;28;20049;-79
2023/04/07 09:52:48;;;;;;;1.77;1.00;;;8.60;99.90;;;;;;4999844;28;20140;-79
2023/04/07 09:55:15;;;;;;;1.83;1.23;;;8.60;99.90;;;;;;4999258;28;20046;-79
2023/04/07 09:57:44;;;;;;;1.92;1.40;;;8.60;99.90;;;;;;5001928;28;20149;-79
2023/04/07 10:00:11;;;;;;;1.77;1.17;;;8.60;99.90;;;;;;4998787;28;21454;-78
2023/04/07 10:02:38;;;;;;;2.55;1.50;;;8.60;99.90;;;;;;4999033;28;20443;-78
2023/04/07 10:05:05;;;;;;;1.67;1.38;;;8.60;99.90;;;;;;5002084;28;20046;-79
2023/04/07 10:07:32;;;;;;;2.75;1.70;;;8.60;99.90;;;;;;5004486;28;20060;-78
2023/04/07 10:09:59;;;;;;;2.22;1.33;;;8.60;99.90;;;;;;5015833;28;20052;-79
2023/04/07 10:12:26;;;;;;;2.80;1.45;;;8.60;99.90;;;;;;5005747;28;20057;-79
2023/04/07 10:14:54;;;;;;;1.25;1.08;;;8.60;99.90;;;;;;5002929;28;20045;-78
2023/04/07 10:17:22;;;;;;;1.70;1.30;;;8.60;99.90;;;;;;5005468;28;20050;-79
2023/04/07 10:19:50;;;;;;;2.85;1.52;;;8.60;99.90;;;;;;5009080;28;20046;-78
2023/04/07 10:22:17;;;;;;;1.55;1.23;;;8.70;99.90;;;;;;4998378;28;20054;-78
2023/04/07 10:24:54;;;;;;;2.08;1.65;;;8.70;99.90;;;;;;5014075;28;20054;-79
2023/04/07 10:27:28;;;;;;;3.03;2.35;;;8.80;99.90;;;;;;5016191;28;20141;-79
2023/04/07 10:29:56;;;;;;;2.25;1.23;;;8.90;99.90;;;;;;5016059;28;20041;-79
2023/04/07 10:32:23;;;;;;;1.60;1.10;;;9.10;99.90;;;;;;5008461;28;20134;-78
2023/04/07 10:34:52;;;;;;;3.55;1.17;;;9.20;99.90;;;;;;5011435;28;20096;-78
2023/04/07 10:37:21;;;;;;;1.73;1.13;;;9.30;99.90;;;;;;5011662;28;20046;-78
2023/04/07 10:39:50;;;;;;;0.95;0.80;;;9.40;99.90;;;;;;5006209;28;20050;-77
2023/04/07 10:42:35;;;;;;;2.13;1.10;;;9.60;99.90;;;;;;5009298;28;20169;-77
2023/04/07 10:45:06;;;;;;;1.20;1.10;;;9.70;99.90;;;;;;4999573;28;20057;-78
2023/04/07 10:47:32;;;;;;;;;;;9.70;99.90;;;;;;5009116;28;20061;-80
2023/04/07 10:50:18;;;;;;;2.05;0.93;;;9.80;99.90;;;;;;5012143;28;20004;-78
2023/04/07 10:52:46;;;;;;;1.42;1.10;;;9.90;99.90;;;;;;5017557;28;20056;-79
2023/04/07 10:55:40;;;;;;;1.40;0.70;;;9.90;99.90;;;;;;5011903;28;20128;-79
2023/04/07 10:58:18;;;;;;;0.68;0.50;;;10.10;99.90;;;;;;5010580;28;20058;-79
2023/04/07 11:01:03;;;;;;;2.00;0.57;;;10.20;99.90;;;;;;5009289;28;20054;-79
2023/04/07 11:03:33;;;;;;;0.40;0.40;;;10.40;99.90;;;;;;5001498;28;20529;-78
2023/04/07 11:06:07;;;;;;;1.95;0.50;;;10.60;99.90;;;;;;5006937;28;20099;-79
2023/04/07 11:08:45;;;;;;;1.15;0.73;;;10.70;99.90;;;;;;5000878;28;20068;-78
2023/04/07 11:11:18;;;;;;;1.30;0.93;;;10.70;99.90;;;;;;5009464;28;20144;-80
2023/04/07 11:13:49;;;;;;;2.35;1.30;;;10.80;99.90;;;;;;5003258;28;20117;-78
2023/04/07 11:16:18;;;;;;;1.08;0.90;;;10.80;99.90;;;;;;5013430;28;20081;-79
2023/04/07 11:18:49;;;;;;;1.80;0.85;;;10.80;99.90;;;;;;5013516;28;20072;-79
2023/04/07 11:21:19;;;;;;;1.10;0.80;;;10.80;99.90;;;;;;5010858;28;20056;-78
2023/04/07 11:23:46;;;;;;;3.60;0.80;;;10.80;99.90;;;;;;5011003;28;20046;-80
2023/04/07 11:26:15;;;;;;;1.08;0.75;;;10.80;99.90;;;;;;5009261;28;20086;-79
2023/04/07 11:28:51;;;;;;;1.02;0.80;;;10.90;99.90;;;;;;5013563;28;20058;-79
2023/04/07 11:31:25;;;;;;;1.55;0.63;;;10.90;99.90;;;;;;5015516;28;20051;-79
2023/04/07 11:34:00;;;;;;;0.40;0.40;;;10.90;99.90;;;;;;5014377;28;20051;-78
2023/04/07 11:36:39;;;;;;;0.93;0.70;;;10.80;99.90;;;;;;5010125;28;20136;-78
2023/04/07 11:39:18;;;;;;;1.02;0.80;;;10.90;99.90;;;;;;5014753;28;20136;-78
2023/04/07 11:41:47;;;;;;;1.60;0.85;;;10.80;99.90;;;;;;5011401;28;20054;-79
2023/04/07 11:44:14;;;;;;;0.60;0.60;;;10.70;99.90;;;;;;5011948;28;20077;-78
2023/04/07 11:46:58;;;;;;;0.70;0.50;;;10.80;99.90;;;;;;5011475;28;20133;-79
2023/04/07 11:49:30;;;;;;;0.65;0.50;;;10.70;99.90;;;;;;5004880;28;20073;-77
2023/04/07 11:52:02;;;;;;;0.52;0.52;;;10.70;99.90;;;;;;5011521;28;20103;-77
2023/04/07 11:54:49;;;;;;;0.40;0.40;;;10.70;99.90;;;;;;5004586;28;20054;-78
2023/04/07 11:57:26;;;;;;;1.67;0.40;;;10.70;99.90;;;;;;5006279;28;20518;-77
2023/04/07 12:00:10;;;;;;;0.65;0.52;;;10.60;99.90;;;;;;5001200;28;20054;-77
2023/04/07 12:02:37;;;;;;;1.38;1.00;;;10.60;99.90;;;;;;5001945;28;20141;-77
2023/04/07 12:05:05;;;;;;;1.25;0.85;;;10.60;99.90;;;;;;5013746;28;20045;-77
2023/04/07 12:07:32;;;;;;;1.48;1.00;;;10.70;99.90;;;;;;5007651;28;20426;-78
2023/04/07 12:10:25;;;;;;;0.65;0.65;;;10.70;99.90;;;;;;5003423;28;20041;-77
2023/04/07 12:12:52;;;;;;;1.13;0.80;;;10.80;99.90;;;;;;5009435;28;20046;-77
2023/04/07 12:15:20;;;;;;;0.50;0.50;;;10.80;99.90;;;;;;5006942;28;20050;-77
2023/04/07 12:17:48;;;;;;;0.40;0.40;;;10.90;99.90;;;;;;5002403;28;20132;-77
2023/04/07 12:20:15;;;;;;;0.50;0.50;;;10.90;99.90;;;;;;5010520;28;20045;-78
2023/04/07 12:22:42;;;;;;;0.80;0.77;;;10.90;99.90;;;;;;5002526;28;20518;-78
2023/04/07 12:25:08;;;;;;;0.88;0.80;;;11.00;99.90;;;;;;5002450;28;20049;-78
2023/04/07 12:27:35;;;;;;;2.78;0.98;;;11.00;99.90;;;;;;5004674;28;20047;-77
2023/04/07 12:30:09;;;;;;;0.50;0.50;;;11.00;99.90;;;;;;5010305;28;20046;-77
2023/04/07 12:32:36;;;;;;;0.90;0.75;;;11.10;99.90;;;;;;5010390;28;20053;-77
2023/04/07 12:35:07;;;;;;;0.60;0.60;;;11.00;99.90;;;;;;5008855;28;20052;-77
2023/04/07 12:37:33;;;;;;;0.68;0.68;;;10.90;99.90;;;;;;5007880;28;20046;-77
2023/04/07 12:40:00;;;;;;;1.25;1.08;;;10.90;99.90;;;;;;5006264;28;20136;-76
2023/04/07 12:42:27;;;;;;;2.35;0.60;;;10.90;99.90;;;;;;5004890;28;20062;-78
2023/04/07 12:44:53;;;;;;;0.50;0.50;;;10.90;99.90;;;;;;5005882;28;20057;-77
2023/04/07 12:47:20;;;;;;;0.82;0.80;;;10.90;99.90;;;;;;4996726;28;20050;-77
2023/04/07 12:49:47;;;;;;;1.05;0.93;;;10.90;99.90;;;;;;5006676;28;20125;-77
2023/04/07 12:52:16;;;;;;;2.67;1.20;;;10.90;99.90;;;;;;5004301;28;20045;-77
2023/04/07 12:54:44;;;;;;;0.70;0.68;;;10.90;99.90;;;;;;5014381;28;20525;-78
2023/04/07 12:57:10;;;;;;;0.80;0.80;;;10.80;99.90;;;;;;5009625;28;20064;-77
2023/04/07 12:59:37;;;;;;;0.77;0.77;;;10.70;99.90;;;;;;5008036;28;20049;-78
2023/04/07 13:02:04;;;;;;;2.05;0.80;;;10.70;99.90;;;;;;5003611;28;20052;-78